San Diego, California
Traffic Map
Current Weather Conditions
San Diego, California
Few Clouds
Few Clouds
55°
Feels Like: 55°
Wind Chill: 55° Ceiling: Unl
Heat Index: 55° Visibility: 10mi
Dew Point: 51° Wind: 3mph
Humidity: 86% Direction: 340° (NNW)
Pressure: 30.11in Gusts: 0mph
Raw Report DataKSAN 120951Z 34003KT 10SM FEW026 13/11 A3011 RMK AO2 SLP197 T01280106
Traffic Incident Summary
Active as of:
Severity:
Category:
InformationThere was an issue retrieving the traffic information for this location. Please try a different location or try again shortly.
Advertisements